19:16
Airports
History
Links
Donate
Help keep this website running!
PayPal
Bitcoin
This page is community maintained. The information is intended for PC simulator navigation or reference.
Always use approved charts for navigation.
EDBZ
Schwarzheide Schipkau
Schwarzheide Schipkau (EDBZ)
Schwarzheide, Brandenburg, Germany (1987)
4
Lat/Lng:51° 29' 29.98" N / 13° 52' 48" E
51.491661 / 13.88
Elevation:331'ft / 101mMSL
ID / ICAO:EDBZ
Runways:1
Longest:09-27
Grass 692m / 2,270ft
Nearby Weather18:50 GMT 2017-11-18
Nearby weather at EDDC, Dresden located 25.3 nautical miles from EDBZ
Altimeter: 29.88
Visibility: 6.2 statute miles
Wind: 13 knots (from 260°)
Temp: 3°c / 37°f
Humidity: %

METAR: EDDC 181850Z 26013KT 230V300 9999 -RA FEW010 BKN019 03/00 Q1012 TEMPO 26015G25KT BKN012

(Powered by phpweather)
Nearby VORs <50NM
Nearby NDBs
Runway 09 / 27
Dimensions:692 x 22.9m 2270' x 75'ft
Surface:Grass
Runway 09 [A]Runway 27 [B]
Heading:091°TH 271°TH
Lat:
Lng:
51° 29' 30.18"N
13° 52' 29.8"E
51° 29' 29.78"N
13° 53' 6.2"E
User Notes and Comments
51° 29' 29.98" N / 13° 52' 48" E
Distance To
Airport ID:
Nearby Airports
(U) FINSTERWALDE SCHACKSDORF 10.0 NM
EDUS NW 322°
4 Bronkow 12.5 NM
EDBQ NNE 15°
(U) SPREMBERG WELZOW 12.7 NM
EDCY ENE 61°
4 Finsterwalde 13.3 NM
EDAS NW 318°
(U) KAMENZ 17.2 NM
EDCM SE 141°
(U) GROSSENHAIN 18.9 NM
EDAK SW 227°
(C) Dresden 25.3 NM
EDDC ( WX ) S 191°
VFR Chart
Flight Planning at SkyVector.com